createdAt,value
2022-09-21T00:01:08.822Z,100539.88
2022-09-21T00:03:36.911Z,100532.63
2022-09-21T00:06:05.861Z,100545.84
2022-09-21T00:08:32.342Z,100538.25
2022-09-21T00:11:00.103Z,100544.97
2022-09-21T00:13:28.282Z,100553.66
2022-09-21T00:15:55.960Z,100548.66
2022-09-21T00:18:23.003Z,100550.53
2022-09-21T00:20:49.438Z,100551.41
2022-09-21T00:23:16.154Z,100539.00
2022-09-21T00:25:42.503Z,100547.53
2022-09-21T00:28:09.005Z,100546.34
2022-09-21T00:30:35.378Z,100553.56
2022-09-21T00:33:01.739Z,100546.59
2022-09-21T00:35:28.077Z,100549.13
2022-09-21T00:37:54.642Z,100551.16
2022-09-21T00:40:21.107Z,100559.75
2022-09-21T00:42:47.963Z,100563.16
2022-09-21T00:45:21.297Z,100560.09
2022-09-21T00:47:51.639Z,100554.81
2022-09-21T00:50:24.358Z,100562.38
2022-09-21T00:52:54.263Z,100564.94
2022-09-21T00:55:31.142Z,100565.81
2022-09-21T00:58:02.083Z,100565.63
2022-09-21T01:00:28.517Z,100567.56
2022-09-21T01:03:01.249Z,100566.34
2022-09-21T01:05:28.938Z,100554.66
2022-09-21T01:08:00.481Z,100559.47
2022-09-21T01:10:27.462Z,100560.25
2022-09-21T01:13:15.023Z,100564.84
2022-09-21T01:15:53.262Z,100568.09
2022-09-21T01:18:53.831Z,100568.41
2022-09-21T01:21:30.849Z,100567.41
2022-09-21T01:24:18.660Z,100567.56
2022-09-21T01:27:16.109Z,100574.47
2022-09-21T01:29:49.088Z,100572.25
2022-09-21T01:32:28.142Z,100565.28
2022-09-21T01:35:03.025Z,100573.47
2022-09-21T01:37:36.251Z,100581.78
2022-09-21T01:40:11.021Z,100583.38
2022-09-21T01:42:40.948Z,100581.69
2022-09-21T01:45:10.355Z,100587.88
2022-09-21T01:47:40.692Z,100574.81
2022-09-21T01:50:11.493Z,100572.91
2022-09-21T01:52:46.020Z,100578.88
2022-09-21T01:55:18.619Z,100581.75
2022-09-21T01:57:54.689Z,100580.91
2022-09-21T02:00:22.030Z,100578.94
2022-09-21T02:02:53.631Z,100579.03
2022-09-21T02:05:23.188Z,100577.00
2022-09-21T02:07:51.817Z,100580.41
2022-09-21T02:10:32.630Z,100580.25
2022-09-21T02:13:06.221Z,100576.34
2022-09-21T02:15:51.837Z,100572.06
2022-09-21T02:18:29.084Z,100574.47
2022-09-21T02:20:59.900Z,100576.31
2022-09-21T02:23:37.501Z,100566.63
2022-09-21T02:26:10.516Z,100576.25
2022-09-21T02:29:01.484Z,100574.13
2022-09-21T02:31:57.516Z,100569.44
2022-09-21T02:34:52.571Z,100568.69
2022-09-21T02:37:47.954Z,100574.47
2022-09-21T02:40:32.607Z,100565.28
2022-09-21T02:43:09.152Z,100566.19
2022-09-21T02:45:43.946Z,100557.63
2022-09-21T02:48:34.762Z,100567.22
2022-09-21T02:51:07.435Z,100563.00
2022-09-21T02:53:36.941Z,100562.38
2022-09-21T02:56:07.077Z,100565.97
2022-09-21T02:58:40.908Z,100567.41
2022-09-21T03:01:11.110Z,100564.16
2022-09-21T03:03:38.086Z,100565.44
2022-09-21T03:06:04.664Z,100572.75
2022-09-21T03:08:31.022Z,100571.13
2022-09-21T03:10:57.730Z,100575.91
2022-09-21T03:13:24.566Z,100565.78
2022-09-21T03:16:02.615Z,100577.88
2022-09-21T03:18:29.608Z,100572.03
2022-09-21T03:20:55.984Z,100577.09
2022-09-21T03:23:22.390Z,100585.00
2022-09-21T03:25:48.810Z,100589.09
2022-09-21T03:28:15.853Z,100580.59
2022-09-21T03:30:43.088Z,100583.56
2022-09-21T03:33:10.079Z,100577.88
2022-09-21T03:35:36.420Z,100583.81
2022-09-21T03:38:03.062Z,100584.16
2022-09-21T03:40:29.528Z,100588.25
2022-09-21T03:42:56.027Z,100596.56
2022-09-21T03:45:22.496Z,100591.31
2022-09-21T03:47:49.128Z,100597.75
2022-09-21T03:50:15.750Z,100597.09
2022-09-21T03:52:42.175Z,100593.31
2022-09-21T03:55:09.581Z,100601.16
2022-09-21T03:57:36.656Z,100602.41
2022-09-21T04:00:09.267Z,100600.03
2022-09-21T04:02:36.898Z,100595.13
2022-09-21T04:05:04.108Z,100585.34
2022-09-21T04:07:34.592Z,100600.22
2022-09-21T04:10:05.884Z,100592.31
2022-09-21T04:12:34.477Z,100597.00
2022-09-21T04:15:01.569Z,100585.84
2022-09-21T04:17:28.585Z,100596.81
2022-09-21T04:19:54.986Z,100598.59
2022-09-21T04:22:21.348Z,100597.75
2022-09-21T04:24:47.686Z,100602.81
2022-09-21T04:27:14.461Z,100594.44
2022-09-21T04:29:41.190Z,100590.28
2022-09-21T04:32:07.882Z,100608.03
2022-09-21T04:34:34.308Z,100600.81
2022-09-21T04:37:00.641Z,100613.41
2022-09-21T04:39:26.973Z,100606.09
2022-09-21T04:41:53.358Z,100604.22
2022-09-21T04:44:19.752Z,100615.19
2022-09-21T04:46:46.660Z,100613.16
2022-09-21T04:49:13.011Z,100607.63
2022-09-21T04:51:39.362Z,100615.44
2022-09-21T04:54:06.561Z,100613.16
2022-09-21T04:56:33.697Z,100620.19
2022-09-21T04:59:00.121Z,100604.91
2022-09-21T05:01:26.522Z,100611.50
2022-09-21T05:03:52.994Z,100618.22
2022-09-21T05:06:19.426Z,100621.91
2022-09-21T05:09:04.316Z,100614.59
2022-09-21T05:11:30.837Z,100615.69
2022-09-21T05:13:57.348Z,100624.22
2022-09-21T05:16:23.807Z,100634.31
2022-09-21T05:18:53.942Z,100637.19
2022-09-21T05:21:21.454Z,100639.75
2022-09-21T05:23:47.791Z,100634.44
2022-09-21T05:26:14.158Z,100634.63
2022-09-21T05:28:40.918Z,100643.22
2022-09-21T05:31:33.005Z,100637.53
2022-09-21T05:34:18.539Z,100643.22
2022-09-21T05:37:03.356Z,100649.94
2022-09-21T05:39:30.057Z,100656.63
2022-09-21T05:41:56.929Z,100644.69
2022-09-21T05:44:23.668Z,100657.13
2022-09-21T05:47:05.987Z,100659.44
2022-09-21T05:49:49.569Z,100652.16
2022-09-21T05:52:25.125Z,100666.56
2022-09-21T05:55:22.944Z,100665.63
2022-09-21T05:58:23.688Z,100668.94
2022-09-21T06:01:02.274Z,100667.97
2022-09-21T06:03:30.860Z,100668.66
2022-09-21T06:05:58.337Z,100661.91
2022-09-21T06:08:25.714Z,100668.22
2022-09-21T06:10:52.687Z,100672.59
2022-09-21T06:13:19.468Z,100664.44
2022-09-21T06:15:45.802Z,100670.13
2022-09-21T06:18:17.527Z,100680.19
2022-09-21T06:20:44.229Z,100678.47
2022-09-21T06:23:13.053Z,100673.81
2022-09-21T06:25:39.434Z,100680.47
2022-09-21T06:28:11.847Z,100680.53
2022-09-21T06:30:40.870Z,100682.88
2022-09-21T06:33:07.822Z,100681.94
2022-09-21T06:35:35.830Z,100684.44
2022-09-21T06:38:05.310Z,100694.88
2022-09-21T06:40:33.854Z,100687.53
2022-09-21T06:43:01.941Z,100681.28
2022-09-21T06:45:29.796Z,100687.47
2022-09-21T06:47:56.254Z,100688.78
2022-09-21T06:50:23.406Z,100687.22
2022-09-21T06:52:50.006Z,100687.06
2022-09-21T06:55:16.940Z,100685.94
2022-09-21T06:57:43.727Z,100681.84
2022-09-21T07:00:12.420Z,100697.50
2022-09-21T07:02:42.182Z,100695.19
2022-09-21T07:05:08.625Z,100695.00
2022-09-21T07:07:36.393Z,100688.56
2022-09-21T07:10:05.535Z,100691.00
2022-09-21T07:12:34.517Z,100690.66
2022-09-21T07:15:02.400Z,100692.75
2022-09-21T07:17:36.708Z,100699.56
2022-09-21T07:20:05.074Z,100694.84
2022-09-21T07:22:32.800Z,100696.41
2022-09-21T07:24:59.997Z,100705.16
2022-09-21T07:27:26.525Z,100701.22
2022-09-21T07:29:52.953Z,100700.44
2022-09-21T07:32:19.874Z,100698.56
2022-09-21T07:34:46.579Z,100709.63
2022-09-21T07:37:13.825Z,100703.81
2022-09-21T07:39:40.185Z,100715.59
2022-09-21T07:42:07.074Z,100694.88
2022-09-21T07:44:34.176Z,100707.19
2022-09-21T07:47:01.824Z,100713.69
2022-09-21T07:49:28.170Z,100692.91
2022-09-21T07:51:54.575Z,100698.41
2022-09-21T07:54:20.994Z,100705.38
2022-09-21T07:57:07.344Z,100703.03
2022-09-21T07:59:33.730Z,100696.34
2022-09-21T08:02:00.521Z,100696.19
2022-09-21T08:04:27.020Z,100697.53
2022-09-21T08:06:53.421Z,100697.66
2022-09-21T08:09:19.766Z,100699.47
2022-09-21T08:11:46.976Z,100702.25
2022-09-21T08:14:22.393Z,100705.16
2022-09-21T08:16:52.479Z,100701.66
2022-09-21T08:19:19.213Z,100696.72
2022-09-21T08:21:51.416Z,100702.81
2022-09-21T08:24:21.388Z,100701.56
2022-09-21T08:26:49.827Z,100696.41
2022-09-21T08:29:16.196Z,100712.22
2022-09-21T08:31:43.375Z,100703.81
2022-09-21T08:34:09.852Z,100710.38
2022-09-21T08:36:36.224Z,100710.09
2022-09-21T08:39:02.775Z,100714.44
2022-09-21T08:41:47.592Z,100710.78
2022-09-21T08:44:20.038Z,100713.16
2022-09-21T08:46:50.473Z,100713.88
2022-09-21T08:49:25.082Z,100719.09
2022-09-21T08:51:57.667Z,100694.34
2022-09-21T08:54:51.653Z,100710.94
2022-09-21T08:57:19.301Z,100706.59
2022-09-21T08:59:47.937Z,100707.09
2022-09-21T09:02:40.320Z,100703.69
2022-09-21T09:05:28.310Z,100703.94
2022-09-21T09:08:14.625Z,100699.44
2022-09-21T09:10:52.080Z,100708.63
2022-09-21T09:13:52.984Z,100703.44
2022-09-21T09:16:36.172Z,100709.63
2022-09-21T09:19:23.420Z,100693.09
2022-09-21T09:21:50.145Z,100692.44
2022-09-21T09:24:38.696Z,100700.34
2022-09-21T09:27:17.908Z,100701.63
2022-09-21T09:29:54.244Z,100696.44
2022-09-21T09:32:27.649Z,100710.91
2022-09-21T09:35:05.082Z,100694.78
2022-09-21T09:37:36.936Z,100700.44
2022-09-21T09:40:03.938Z,100696.59
2022-09-21T09:43:00.169Z,100704.84
2022-09-21T09:45:31.817Z,100694.94
2022-09-21T09:48:27.009Z,100694.28
2022-09-21T09:50:53.425Z,100691.41
2022-09-21T09:53:23.879Z,100685.03
2022-09-21T09:55:54.297Z,100682.38
2022-09-21T09:58:34.291Z,100686.63
2022-09-21T10:01:00.655Z,100679.44
2022-09-21T10:03:28.701Z,100681.53
2022-09-21T10:05:55.644Z,100682.00
2022-09-21T10:08:43.945Z,100677.31
2022-09-21T10:11:13.127Z,100666.19
2022-09-21T10:13:43.149Z,100668.63
2022-09-21T10:16:09.523Z,100666.50
2022-09-21T10:18:51.842Z,100658.44
2022-09-21T10:21:22.363Z,100670.41
2022-09-21T10:23:56.676Z,100655.50
2022-09-21T10:26:23.234Z,100658.84
2022-09-21T10:29:01.334Z,100662.47
2022-09-21T10:31:30.677Z,100659.47
2022-09-21T10:34:12.587Z,100652.31
2022-09-21T10:36:38.984Z,100644.75
2022-09-21T10:39:18.799Z,100643.50
2022-09-21T10:41:50.485Z,100641.09
2022-09-21T10:44:19.324Z,100639.00
2022-09-21T10:46:48.656Z,100631.63
2022-09-21T10:49:21.470Z,100638.53
2022-09-21T10:51:51.110Z,100629.84
2022-09-21T10:54:25.818Z,100626.66
2022-09-21T10:57:16.306Z,100627.50
2022-09-21T10:59:42.713Z,100625.69
2022-09-21T11:02:34.427Z,100627.72
2022-09-21T11:05:18.168Z,100620.31
2022-09-21T11:08:12.646Z,100626.34
2022-09-21T11:10:53.537Z,100620.38
2022-09-21T11:13:38.590Z,100613.53
2022-09-21T11:16:22.637Z,100617.75
2022-09-21T11:18:51.706Z,100619.16
2022-09-21T11:21:36.385Z,100617.34
2022-09-21T11:24:26.299Z,100608.09
2022-09-21T11:27:03.896Z,100611.41
2022-09-21T11:29:50.140Z,100607.00
2022-09-21T11:32:42.439Z,100600.16
2022-09-21T11:35:35.228Z,100604.28
2022-09-21T11:38:20.428Z,100589.63
2022-09-21T11:40:53.584Z,100589.63
2022-09-21T11:43:35.481Z,100585.28
2022-09-21T11:46:30.207Z,100587.25
2022-09-21T11:49:33.817Z,100590.13
2022-09-21T11:52:02.912Z,100590.72
2022-09-21T11:54:53.618Z,100589.56
2022-09-21T11:57:25.669Z,100581.56
2022-09-21T12:00:04.218Z,100589.59
2022-09-21T12:02:51.974Z,100575.09
2022-09-21T12:05:56.584Z,100575.41
2022-09-21T12:08:35.104Z,100577.81
2022-09-21T12:11:06.177Z,100566.28
2022-09-21T12:13:45.308Z,100568.25
2022-09-21T12:16:40.609Z,100575.25
2022-09-21T12:19:13.877Z,100567.63
2022-09-21T12:21:47.445Z,100561.38
2022-09-21T12:24:22.752Z,100563.38
2022-09-21T12:26:55.460Z,100562.41
2022-09-21T12:29:47.537Z,100559.09
2022-09-21T12:32:47.303Z,100559.09
2022-09-21T12:35:36.292Z,100554.91
2022-09-21T12:38:23.432Z,100552.22
2022-09-21T12:40:59.716Z,100542.41
2022-09-21T12:43:36.978Z,100539.66
2022-09-21T12:46:07.668Z,100544.78
2022-09-21T12:48:38.835Z,100540.81
2022-09-21T12:51:24.552Z,100530.00
2022-09-21T12:53:58.083Z,100534.50
2022-09-21T12:56:51.231Z,100531.59
2022-09-21T12:59:43.389Z,100530.63
2022-09-21T13:02:51.562Z,100514.72
2022-09-21T13:05:27.094Z,100514.19
2022-09-21T13:08:13.149Z,100505.38
2022-09-21T13:10:44.937Z,100519.06
2022-09-21T13:13:27.952Z,100502.75
2022-09-21T13:15:55.014Z,100505.81
2022-09-21T13:18:35.853Z,100504.34
2022-09-21T13:21:16.852Z,100499.53
2022-09-21T13:23:43.809Z,100500.06
2022-09-21T13:26:12.125Z,100515.44
2022-09-21T13:28:58.457Z,100514.72
2022-09-21T13:31:57.447Z,100508.59
2022-09-21T13:34:29.663Z,100499.88
2022-09-21T13:37:11.328Z,100496.03
2022-09-21T13:39:43.636Z,100506.81
2022-09-21T13:42:28.370Z,100499.63
2022-09-21T13:44:55.450Z,100503.25
2022-09-21T13:47:31.593Z,100500.84
2022-09-21T13:50:01.100Z,100488.88
2022-09-21T13:52:32.384Z,100489.63
2022-09-21T13:55:01.735Z,100489.94
2022-09-21T13:57:34.877Z,100496.22
2022-09-21T14:00:26.484Z,100488.91
2022-09-21T14:03:06.016Z,100485.91
2022-09-21T14:05:45.963Z,100482.94
2022-09-21T14:08:15.655Z,100480.78
2022-09-21T14:10:54.397Z,100476.81
2022-09-21T14:13:26.662Z,100473.69
2022-09-21T14:15:53.143Z,100468.72
2022-09-21T14:18:35.670Z,100473.34
2022-09-21T14:21:08.203Z,100462.09
2022-09-21T14:23:36.675Z,100462.09
2022-09-21T14:26:40.872Z,100464.91
2022-09-21T14:29:17.308Z,100465.16
2022-09-21T14:31:44.072Z,100466.72
2022-09-21T14:34:20.376Z,100462.75
2022-09-21T14:36:52.785Z,100465.31
2022-09-21T14:39:33.358Z,100462.06
2022-09-21T14:42:17.534Z,100456.41
2022-09-21T14:44:44.588Z,100457.50
2022-09-21T14:47:29.516Z,100453.28
2022-09-21T14:50:07.489Z,100454.25
2022-09-21T14:53:02.076Z,100457.31
2022-09-21T14:55:40.444Z,100452.94
2022-09-21T14:58:24.858Z,100454.88
2022-09-21T15:00:53.230Z,100439.44
2022-09-21T15:03:30.581Z,100442.81
2022-09-21T15:06:29.473Z,100430.75
2022-09-21T15:09:39.606Z,100436.19
2022-09-21T15:12:32.030Z,100423.25
2022-09-21T15:15:23.123Z,100432.09
2022-09-21T15:17:59.282Z,100430.41
2022-09-21T15:20:27.702Z,100428.59
2022-09-21T15:22:55.894Z,100426.06
2022-09-21T15:25:24.343Z,100424.22
2022-09-21T15:27:51.926Z,100424.47
2022-09-21T15:30:21.806Z,100426.16
2022-09-21T15:32:53.504Z,100428.72
2022-09-21T15:35:33.371Z,100420.84
2022-09-21T15:38:01.232Z,100421.13
2022-09-21T15:40:31.066Z,100421.97
2022-09-21T15:43:20.716Z,100430.06
2022-09-21T15:45:54.623Z,100425.84
2022-09-21T15:48:22.739Z,100426.94
2022-09-21T15:51:07.942Z,100421.38
2022-09-21T15:53:41.136Z,100424.13
2022-09-21T15:56:09.712Z,100427.81
2022-09-21T15:58:40.370Z,100418.13
2022-09-21T16:01:14.758Z,100414.75
2022-09-21T16:03:42.487Z,100409.53
2022-09-21T16:06:37.706Z,100411.13
2022-09-21T16:09:31.704Z,100409.53
2022-09-21T16:11:58.675Z,100405.47
2022-09-21T16:14:44.043Z,100408.38
2022-09-21T16:17:13.267Z,100407.25
2022-09-21T16:19:49.617Z,100410.91
2022-09-21T16:22:21.421Z,100401.50
2022-09-21T16:24:54.582Z,100408.38
2022-09-21T16:27:24.522Z,100405.75
2022-09-21T16:29:53.057Z,100411.19
2022-09-21T16:32:19.421Z,100414.56
2022-09-21T16:34:51.623Z,100417.97
2022-09-21T16:37:27.991Z,100420.78
2022-09-21T16:39:56.153Z,100421.03
2022-09-21T16:42:27.781Z,100416.19
2022-09-21T16:44:54.853Z,100423.44
2022-09-21T16:47:25.222Z,100421.78
2022-09-21T16:49:56.910Z,100418.88
2022-09-21T16:52:24.402Z,100427.81
2022-09-21T16:54:51.240Z,100423.59
2022-09-21T16:57:18.277Z,100428.41
2022-09-21T16:59:44.628Z,100434.22
2022-09-21T17:02:14.260Z,100428.66
2022-09-21T17:04:41.310Z,100433.97
2022-09-21T17:07:11.969Z,100424.66
2022-09-21T17:09:42.022Z,100424.44
2022-09-21T17:12:10.981Z,100434.22
2022-09-21T17:14:40.908Z,100433.97
2022-09-21T17:17:22.314Z,100432.91
2022-09-21T17:19:50.284Z,100426.25
2022-09-21T17:22:18.131Z,100429.03
2022-09-21T17:24:50.761Z,100429.75
2022-09-21T17:27:21.251Z,100433.09
2022-09-21T17:29:49.485Z,100436.03
2022-09-21T17:32:20.968Z,100428.03
2022-09-21T17:35:19.887Z,100429.47
2022-09-21T17:37:46.300Z,100427.56
2022-09-21T17:40:13.649Z,100436.63
2022-09-21T17:42:43.186Z,100439.25
2022-09-21T17:45:21.756Z,100449.00
2022-09-21T17:47:50.201Z,100436.31
2022-09-21T17:50:26.813Z,100442.22
2022-09-21T17:53:13.454Z,100442.19
2022-09-21T17:55:45.638Z,100457.63
2022-09-21T17:58:37.765Z,100459.19
2022-09-21T18:01:04.116Z,100465.69
2022-09-21T18:03:35.706Z,100455.63
2022-09-21T18:06:02.427Z,100467.38
2022-09-21T18:08:33.865Z,100473.94
2022-09-21T18:11:03.184Z,100471.06
2022-09-21T18:13:47.013Z,100478.13
2022-09-21T18:16:22.565Z,100473.16
2022-09-21T18:19:02.635Z,100473.75
2022-09-21T18:21:33.685Z,100474.84
2022-09-21T18:24:20.166Z,100476.88
2022-09-21T18:26:47.876Z,100483.88
2022-09-21T18:29:41.988Z,100473.75
2022-09-21T18:32:23.833Z,100483.47
2022-09-21T18:35:16.776Z,100490.41
2022-09-21T18:38:05.144Z,100482.41
2022-09-21T18:41:24.286Z,100480.66
2022-09-21T18:44:31.701Z,100482.47
2022-09-21T18:47:18.022Z,100485.53
2022-09-21T18:50:19.983Z,100478.47
2022-09-21T18:52:57.172Z,100490.25
2022-09-21T18:55:29.036Z,100489.31
2022-09-21T18:57:57.157Z,100492.06
2022-09-21T19:00:31.474Z,100491.53
2022-09-21T19:03:16.316Z,100487.63
2022-09-21T19:05:54.578Z,100490.06
2022-09-21T19:09:15.903Z,100486.56
2022-09-21T19:11:50.003Z,100496.44
2022-09-21T19:14:45.295Z,100496.13
2022-09-21T19:17:33.189Z,100493.56
2022-09-21T19:20:12.427Z,100500.75
2022-09-21T19:22:56.880Z,100500.06
2022-09-21T19:25:34.137Z,100499.72
2022-09-21T19:28:05.720Z,100500.66
2022-09-21T19:30:32.317Z,100492.91
2022-09-21T19:32:59.953Z,100502.47
2022-09-21T19:35:28.937Z,100500.66
2022-09-21T19:38:02.331Z,100500.47
2022-09-21T19:40:32.490Z,100498.97
2022-09-21T19:43:23.779Z,100504.16
2022-09-21T19:46:04.861Z,100505.97
2022-09-21T19:48:46.228Z,100499.91
2022-09-21T19:51:16.345Z,100508.59
2022-09-21T19:54:01.705Z,100497.91
2022-09-21T19:56:53.337Z,100502.66
2022-09-21T19:59:40.430Z,100500.00
2022-09-21T20:02:10.793Z,100495.34
2022-09-21T20:04:56.857Z,100505.00
2022-09-21T20:07:44.289Z,100514.19
2022-09-21T20:10:24.035Z,100502.66
2022-09-21T20:13:08.397Z,100501.66
2022-09-21T20:15:46.799Z,100499.00
2022-09-21T20:18:46.219Z,100498.16
2022-09-21T20:21:15.668Z,100501.88
2022-09-21T20:23:42.422Z,100502.25
2022-09-21T20:26:23.401Z,100498.09
2022-09-21T20:28:54.086Z,100498.72
2022-09-21T20:31:25.663Z,100498.16
2022-09-21T20:33:52.082Z,100487.56
2022-09-21T20:36:18.532Z,100492.91
2022-09-21T20:38:44.950Z,100490.53
2022-09-21T20:41:12.962Z,100496.41
2022-09-21T20:43:39.664Z,100484.63
2022-09-21T20:46:06.330Z,100495.00
2022-09-21T20:48:32.717Z,100486.44
2022-09-21T20:51:01.517Z,100494.81
2022-09-21T20:53:27.844Z,100490.84
2022-09-21T20:55:56.418Z,100491.06
2022-09-21T20:58:23.798Z,100485.44
2022-09-21T21:00:54.002Z,100491.03
2022-09-21T21:03:22.917Z,100492.81
2022-09-21T21:05:49.266Z,100499.50
2022-09-21T21:08:15.652Z,100497.25
2022-09-21T21:10:46.540Z,100495.25
2022-09-21T21:13:12.892Z,100500.47
2022-09-21T21:15:39.229Z,100501.16
2022-09-21T21:18:10.019Z,100502.72
2022-09-21T21:20:37.518Z,100507.38
2022-09-21T21:23:07.903Z,100500.50
2022-09-21T21:25:34.835Z,100505.78
2022-09-21T21:28:01.686Z,100510.97
2022-09-21T21:30:28.089Z,100515.25
2022-09-21T21:32:54.482Z,100501.38
2022-09-21T21:35:20.832Z,100501.28
2022-09-21T21:37:47.298Z,100513.94
2022-09-21T21:40:13.785Z,100503.81
2022-09-21T21:42:40.134Z,100512.03
2022-09-21T21:45:07.430Z,100511.19
2022-09-21T21:47:41.432Z,100507.06
2022-09-21T21:50:09.609Z,100506.59
2022-09-21T21:52:36.173Z,100504.44
2022-09-21T21:55:02.937Z,100509.72
2022-09-21T21:57:29.333Z,100505.19
2022-09-21T21:59:55.658Z,100500.09
2022-09-21T22:02:22.273Z,100503.22
2022-09-21T22:04:48.642Z,100502.38
2022-09-21T22:07:15.021Z,100502.91
2022-09-21T22:09:41.384Z,100499.63
2022-09-21T22:12:09.013Z,100495.28
2022-09-21T22:14:35.528Z,100503.69
2022-09-21T22:17:02.236Z,100487.00
2022-09-21T22:19:28.698Z,100490.69
2022-09-21T22:21:55.142Z,100496.06
2022-09-21T22:24:22.161Z,100495.47
2022-09-21T22:26:48.826Z,100489.84
2022-09-21T22:29:17.066Z,100500.22
2022-09-21T22:31:46.588Z,100506.25
2022-09-21T22:34:14.510Z,100503.63
2022-09-21T22:36:43.196Z,100505.41
2022-09-21T22:39:09.832Z,100494.72
2022-09-21T22:41:41.054Z,100498.03
2022-09-21T22:44:07.781Z,100501.63
2022-09-21T22:46:34.850Z,100498.34
2022-09-21T22:49:01.298Z,100510.59
2022-09-21T22:51:28.788Z,100502.56
2022-09-21T22:53:55.735Z,100501.91
2022-09-21T22:56:25.546Z,100501.44
2022-09-21T22:58:54.415Z,100494.53
2022-09-21T23:01:29.853Z,100492.75
2022-09-21T23:03:58.732Z,100500.78
2022-09-21T23:06:28.307Z,100491.44
2022-09-21T23:08:57.179Z,100482.00
2022-09-21T23:11:29.266Z,100487.19
2022-09-21T23:13:57.321Z,100482.84
2022-09-21T23:16:25.194Z,100485.00
2022-09-21T23:18:51.617Z,100494.13
2022-09-21T23:21:20.623Z,100495.97
2022-09-21T23:23:47.789Z,100483.94
2022-09-21T23:26:17.332Z,100487.91
2022-09-21T23:28:45.884Z,100495.72
2022-09-21T23:31:14.716Z,100493.19
2022-09-21T23:33:46.521Z,100487.72
2022-09-21T23:36:16.390Z,100487.91
2022-09-21T23:38:43.247Z,100489.50
2022-09-21T23:41:12.197Z,100494.03
2022-09-21T23:43:40.679Z,100486.19
2022-09-21T23:46:08.819Z,100485.63
2022-09-21T23:48:35.942Z,100488.28
2022-09-21T23:51:03.411Z,100486.75
2022-09-21T23:53:30.894Z,100494.47
2022-09-21T23:55:58.015Z,100485.97
2022-09-21T23:58:25.817Z,100491.09
